createdAt,value
2017-12-11T00:01:16.980Z,0.20
2017-12-11T00:03:43.893Z,0.20
2017-12-11T00:06:10.841Z,0.20
2017-12-11T00:08:38.220Z,0.20
2017-12-11T00:11:05.139Z,0.20
2017-12-11T00:13:32.077Z,0.20
2017-12-11T00:16:10.803Z,0.20
2017-12-11T00:18:38.669Z,0.20
2017-12-11T00:21:06.568Z,0.30
2017-12-11T00:23:33.462Z,0.50
2017-12-11T00:26:00.395Z,0.50
2017-12-11T00:28:28.278Z,0.40
2017-12-11T00:30:55.194Z,0.50
2017-12-11T00:33:22.086Z,0.40
2017-12-11T00:35:49.751Z,0.30
2017-12-11T00:38:19.350Z,0.40
2017-12-11T00:40:46.237Z,0.30
2017-12-11T00:43:13.133Z,0.50
2017-12-11T00:45:40.030Z,0.50
2017-12-11T00:48:06.934Z,0.50
2017-12-11T00:50:34.590Z,0.50
2017-12-11T00:53:02.262Z,0.50
2017-12-11T00:55:29.925Z,0.50
2017-12-11T00:57:57.784Z,0.40
2017-12-11T01:00:29.839Z,0.60
2017-12-11T01:02:56.755Z,0.60
2017-12-11T01:05:23.665Z,0.70
2017-12-11T01:07:50.581Z,0.70
2017-12-11T01:10:18.274Z,1.00
2017-12-11T01:12:46.100Z,0.90
2017-12-11T01:15:13.013Z,0.80
2017-12-11T01:17:39.926Z,0.80
2017-12-11T01:20:06.852Z,0.80
2017-12-11T01:22:33.748Z,0.70
2017-12-11T01:25:00.660Z,0.70
2017-12-11T01:27:27.566Z,0.60
2017-12-11T01:29:54.616Z,0.70
2017-12-11T01:32:21.515Z,0.60
2017-12-11T01:34:48.440Z,0.70
2017-12-11T01:37:15.348Z,0.60
2017-12-11T01:39:43.853Z,0.70
2017-12-11T01:42:10.761Z,0.60
2017-12-11T01:44:37.685Z,0.60
2017-12-11T01:47:05.078Z,0.70
2017-12-11T01:49:32.762Z,0.70
2017-12-11T01:52:00.601Z,0.90
2017-12-11T01:54:28.305Z,0.80
2017-12-11T01:56:55.219Z,0.80
2017-12-11T01:59:22.144Z,0.80
2017-12-11T02:01:49.050Z,0.90
2017-12-11T02:04:15.984Z,0.90
2017-12-11T02:06:42.906Z,0.90
2017-12-11T02:09:10.765Z,1.10
2017-12-11T02:11:39.441Z,1.20
2017-12-11T02:14:07.125Z,1.20
2017-12-11T02:16:34.028Z,1.30
2017-12-11T02:19:00.949Z,1.20
2017-12-11T02:21:27.869Z,1.20
2017-12-11T02:23:54.806Z,1.20
2017-12-11T02:26:21.708Z,1.40
2017-12-11T02:28:49.584Z,1.50
2017-12-11T02:31:17.268Z,1.60
2017-12-11T02:33:44.218Z,1.60
2017-12-11T02:36:11.124Z,1.50
2017-12-11T02:38:38.031Z,1.40
2017-12-11T02:41:04.957Z,1.60
2017-12-11T02:43:31.858Z,1.60
2017-12-11T02:46:00.457Z,1.50
2017-12-11T02:48:28.133Z,1.50
2017-12-11T02:50:55.050Z,1.70
2017-12-11T02:53:21.958Z,1.50
2017-12-11T02:55:48.885Z,1.80
2017-12-11T02:58:15.795Z,1.90
2017-12-11T03:00:43.488Z,1.90
2017-12-11T03:03:10.395Z,2.00
2017-12-11T03:05:38.078Z,1.70
2017-12-11T03:08:04.993Z,2.00
2017-12-11T03:10:32.127Z,1.80
2017-12-11T03:12:59.029Z,1.80
2017-12-11T03:15:25.953Z,1.80
2017-12-11T03:17:52.856Z,1.80
2017-12-11T03:20:19.778Z,1.90
2017-12-11T03:22:46.685Z,1.90
2017-12-11T03:25:13.624Z,1.80
2017-12-11T03:27:41.292Z,2.00
2017-12-11T03:30:08.236Z,2.00
2017-12-11T03:32:35.136Z,1.90
2017-12-11T03:35:02.056Z,2.00
2017-12-11T03:37:28.973Z,2.10
2017-12-11T03:39:55.898Z,2.10
2017-12-11T03:42:24.568Z,2.20
2017-12-11T03:44:51.484Z,2.20
2017-12-11T03:47:18.384Z,2.20
2017-12-11T03:49:45.296Z,2.10
2017-12-11T03:52:12.204Z,2.10
2017-12-11T03:54:39.128Z,2.10
2017-12-11T03:57:06.033Z,2.00
2017-12-11T03:59:32.972Z,1.90
2017-12-11T04:02:00.883Z,1.90
2017-12-11T04:04:27.788Z,2.00
2017-12-11T04:06:54.714Z,2.00
2017-12-11T04:09:21.658Z,2.00
2017-12-11T04:11:48.580Z,2.00
2017-12-11T04:14:15.484Z,2.00
2017-12-11T04:16:43.209Z,2.10
2017-12-11T04:19:10.113Z,2.40
2017-12-11T04:21:37.016Z,2.10
2017-12-11T04:24:03.958Z,2.10
2017-12-11T04:26:30.885Z,2.20
2017-12-11T04:28:57.800Z,2.10
2017-12-11T04:31:24.712Z,2.10
2017-12-11T04:33:52.385Z,2.00
2017-12-11T04:36:19.304Z,2.00
2017-12-11T04:38:46.222Z,2.10
2017-12-11T04:41:13.137Z,2.10
2017-12-11T04:43:40.041Z,2.00
2017-12-11T04:46:07.744Z,2.10
2017-12-11T04:48:34.669Z,2.30
2017-12-11T04:51:01.587Z,2.10
2017-12-11T04:53:28.511Z,2.20
2017-12-11T04:55:55.419Z,2.20
2017-12-11T04:58:22.335Z,2.10
2017-12-11T05:00:50.004Z,2.20
2017-12-11T05:03:17.820Z,2.10
2017-12-11T05:05:44.736Z,2.20
2017-12-11T05:08:11.649Z,2.20
2017-12-11T05:10:39.347Z,2.20
2017-12-11T05:13:06.271Z,2.40
2017-12-11T05:15:33.232Z,2.20
2017-12-11T05:18:00.894Z,2.20
2017-12-11T05:20:28.821Z,2.30
2017-12-11T05:22:56.496Z,2.20
2017-12-11T05:25:23.416Z,2.40
2017-12-11T05:27:50.320Z,2.20
2017-12-11T05:30:17.508Z,2.50
2017-12-11T05:32:44.419Z,2.40
2017-12-11T05:35:11.337Z,2.50
2017-12-11T05:37:38.244Z,2.60
2017-12-11T05:40:05.187Z,2.60
2017-12-11T05:42:32.089Z,2.60
2017-12-11T05:44:59.065Z,2.60
2017-12-11T05:47:25.974Z,2.60
2017-12-11T05:49:52.916Z,2.60
2017-12-11T05:52:19.820Z,2.70
2017-12-11T05:54:48.516Z,2.80
2017-12-11T05:57:15.425Z,2.90
2017-12-11T05:59:42.356Z,2.80
2017-12-11T06:02:09.266Z,2.80
2017-12-11T06:04:36.192Z,2.80
2017-12-11T06:07:03.868Z,2.90
2017-12-11T06:09:30.779Z,2.90
2017-12-11T06:11:57.709Z,2.80
2017-12-11T06:14:24.644Z,2.90
2017-12-11T06:16:51.564Z,2.90
2017-12-11T06:19:18.464Z,3.00
2017-12-11T06:21:46.152Z,2.90
2017-12-11T06:24:13.058Z,2.90
2017-12-11T06:26:39.976Z,2.90
2017-12-11T06:29:07.921Z,3.00
2017-12-11T06:31:35.752Z,2.90
2017-12-11T06:34:02.680Z,2.90
2017-12-11T06:36:29.596Z,2.70
2017-12-11T06:39:03.053Z,2.70
2017-12-11T06:41:30.897Z,2.70
2017-12-11T06:43:59.577Z,2.70
2017-12-11T06:46:27.302Z,2.70
2017-12-11T06:48:54.213Z,2.70
2017-12-11T06:51:27.305Z,2.60
2017-12-11T06:53:54.253Z,2.60
2017-12-11T06:56:21.160Z,2.70
2017-12-11T06:58:48.066Z,2.60
2017-12-11T07:01:14.997Z,2.60
2017-12-11T07:03:42.921Z,2.70
2017-12-11T07:06:10.603Z,2.80
2017-12-11T07:08:37.520Z,2.80
2017-12-11T07:11:04.441Z,2.70
2017-12-11T07:13:31.356Z,2.70
2017-12-11T07:15:58.273Z,2.80
2017-12-11T07:18:26.945Z,2.70
2017-12-11T07:20:54.633Z,2.70
2017-12-11T07:23:25.282Z,2.80
2017-12-11T07:25:54.138Z,2.80
2017-12-11T07:28:21.804Z,2.80
2017-12-11T07:30:49.498Z,2.80
2017-12-11T07:33:16.406Z,2.80
2017-12-11T07:35:44.096Z,3.10
2017-12-11T07:38:11.004Z,3.20
2017-12-11T07:40:38.684Z,3.00
2017-12-11T07:43:05.634Z,3.10
2017-12-11T07:45:32.552Z,2.90
2017-12-11T07:48:00.442Z,2.90
2017-12-11T07:50:31.176Z,2.90
2017-12-11T07:52:58.096Z,2.80
2017-12-11T07:55:25.012Z,2.80
2017-12-11T07:57:51.937Z,2.90
2017-12-11T08:00:18.841Z,2.70
2017-12-11T08:02:46.520Z,2.70
2017-12-11T08:05:13.422Z,2.80
2017-12-11T08:07:40.347Z,2.80
2017-12-11T08:10:07.253Z,2.90
2017-12-11T08:12:34.942Z,2.80
2017-12-11T08:15:01.848Z,2.70
2017-12-11T08:17:29.552Z,2.70
2017-12-11T08:19:56.496Z,2.80
2017-12-11T08:22:24.425Z,2.50
2017-12-11T08:24:53.108Z,2.40
2017-12-11T08:27:21.679Z,2.50
2017-12-11T08:29:49.360Z,2.60
2017-12-11T08:32:16.264Z,2.60
2017-12-11T08:34:43.182Z,2.70
2017-12-11T08:37:10.087Z,2.60
2017-12-11T08:39:37.770Z,2.30
2017-12-11T08:42:05.605Z,2.60
2017-12-11T08:44:33.318Z,2.60
2017-12-11T08:47:01.228Z,2.50
2017-12-11T08:49:28.149Z,2.50
2017-12-11T08:51:55.064Z,2.40
2017-12-11T08:54:21.988Z,2.50
2017-12-11T08:56:48.893Z,2.60
2017-12-11T08:59:15.841Z,2.60
2017-12-11T09:01:42.749Z,2.50
2017-12-11T09:04:09.657Z,2.50
2017-12-11T09:06:36.589Z,2.50
2017-12-11T09:09:04.278Z,2.60
2017-12-11T09:11:31.185Z,2.50
2017-12-11T09:13:58.106Z,2.50
2017-12-11T09:16:25.018Z,2.70
2017-12-11T09:18:51.966Z,2.70
2017-12-11T09:21:18.876Z,2.80
2017-12-11T09:23:46.559Z,3.20
2017-12-11T09:26:13.465Z,3.30
2017-12-11T09:28:42.164Z,3.40
2017-12-11T09:31:09.839Z,3.40
2017-12-11T09:33:36.758Z,3.30
2017-12-11T09:36:03.668Z,3.30
2017-12-11T09:38:30.608Z,3.20
2017-12-11T09:40:57.517Z,3.20
2017-12-11T09:43:25.725Z,3.20
2017-12-11T09:45:52.707Z,3.30
2017-12-11T09:48:20.596Z,3.30
2017-12-11T09:50:48.292Z,3.30
2017-12-11T09:53:15.225Z,3.60
2017-12-11T09:55:42.136Z,3.60
2017-12-11T09:58:10.040Z,3.80
2017-12-11T10:00:37.005Z,3.70
2017-12-11T10:03:04.234Z,3.70
2017-12-11T10:05:31.192Z,3.70
2017-12-11T10:07:58.101Z,3.50
2017-12-11T10:10:25.812Z,3.50
2017-12-11T10:12:52.777Z,3.40
2017-12-11T10:15:20.676Z,3.50
2017-12-11T10:17:48.364Z,3.40
2017-12-11T10:20:15.294Z,3.60
2017-12-11T10:22:42.397Z,3.40
2017-12-11T10:25:10.057Z,3.40
2017-12-11T10:27:37.175Z,3.40
2017-12-11T10:30:04.230Z,3.40
2017-12-11T10:32:31.180Z,3.40
2017-12-11T10:34:58.098Z,3.50
2017-12-11T10:37:25.035Z,3.40
2017-12-11T10:39:52.908Z,3.50
2017-12-11T10:42:19.809Z,3.40
2017-12-11T10:44:46.732Z,3.50
2017-12-11T10:47:13.640Z,3.30
2017-12-11T10:49:40.603Z,3.40
2017-12-11T10:52:07.509Z,3.60
2017-12-11T10:54:35.198Z,3.60
2017-12-11T10:57:02.197Z,3.60
2017-12-11T10:59:29.116Z,3.60
2017-12-11T11:01:56.133Z,3.50
2017-12-11T11:04:23.080Z,3.40
2017-12-11T11:06:49.984Z,3.30
2017-12-11T11:09:16.908Z,3.30
2017-12-11T11:11:43.823Z,3.30
2017-12-11T11:14:10.750Z,3.30
2017-12-11T11:16:37.653Z,3.40
2017-12-11T11:19:04.596Z,3.40
2017-12-11T11:21:32.412Z,3.30
2017-12-11T11:23:59.328Z,3.60
2017-12-11T11:26:27.163Z,3.40
2017-12-11T11:28:54.083Z,3.40
2017-12-11T11:31:20.997Z,3.50
2017-12-11T11:33:47.917Z,3.60
2017-12-11T11:36:15.617Z,3.50
2017-12-11T11:38:46.315Z,3.30
2017-12-11T11:41:14.280Z,3.50
2017-12-11T11:43:43.352Z,3.60
2017-12-11T11:46:10.308Z,3.70
2017-12-11T11:48:37.996Z,3.60
2017-12-11T11:51:08.468Z,3.60
2017-12-11T11:53:36.385Z,3.70
2017-12-11T11:56:04.069Z,3.70
2017-12-11T11:58:31.019Z,3.70
2017-12-11T12:00:57.931Z,3.70
2017-12-11T12:03:25.608Z,3.70
2017-12-11T12:05:52.659Z,3.70
2017-12-11T12:08:20.513Z,3.70
2017-12-11T12:10:51.093Z,3.70
2017-12-11T12:13:18.013Z,3.60
2017-12-11T12:15:46.922Z,3.60
2017-12-11T12:18:13.841Z,3.60
2017-12-11T12:20:44.263Z,3.60
2017-12-11T12:23:11.241Z,3.70
2017-12-11T12:25:38.234Z,3.70
2017-12-11T12:28:05.194Z,3.70
2017-12-11T12:30:34.125Z,3.60
2017-12-11T12:33:01.045Z,3.70
2017-12-11T12:35:27.971Z,3.60
2017-12-11T12:37:54.944Z,3.60
2017-12-11T12:40:21.916Z,3.60
2017-12-11T12:42:48.838Z,3.50
2017-12-11T12:45:15.758Z,3.50
2017-12-11T12:47:44.831Z,3.40
2017-12-11T12:50:12.702Z,3.40
2017-12-11T12:52:39.616Z,3.40
2017-12-11T12:55:06.541Z,3.40
2017-12-11T12:57:33.456Z,3.60
2017-12-11T13:00:00.425Z,3.70
2017-12-11T13:02:27.372Z,3.70
2017-12-11T13:04:54.286Z,3.70
2017-12-11T13:07:21.232Z,3.70
2017-12-11T13:09:48.143Z,3.60
2017-12-11T13:12:15.863Z,3.60
2017-12-11T13:14:42.802Z,3.70
2017-12-11T13:17:09.761Z,3.60
2017-12-11T13:19:36.672Z,3.50
2017-12-11T13:22:03.601Z,3.40
2017-12-11T13:24:31.450Z,3.40
2017-12-11T13:27:01.072Z,3.50
2017-12-11T13:29:27.987Z,3.60
2017-12-11T13:31:54.914Z,3.50
2017-12-11T13:34:21.836Z,3.40
2017-12-11T13:36:48.780Z,3.50
2017-12-11T13:39:16.305Z,3.40
2017-12-11T13:41:43.252Z,3.50
2017-12-11T13:44:10.186Z,3.40
2017-12-11T13:46:37.877Z,3.40
2017-12-11T13:49:04.794Z,3.60
2017-12-11T13:51:31.755Z,3.40
2017-12-11T13:53:58.664Z,3.40
2017-12-11T13:56:25.615Z,3.40
2017-12-11T13:58:53.354Z,3.40
2017-12-11T14:01:22.072Z,3.30
2017-12-11T14:03:49.764Z,3.30
2017-12-11T14:06:16.699Z,3.50
2017-12-11T14:08:43.609Z,3.30
2017-12-11T14:11:10.536Z,3.20
2017-12-11T14:13:37.456Z,3.20
2017-12-11T14:16:07.531Z,3.20
2017-12-11T14:18:35.212Z,3.10
2017-12-11T14:21:02.161Z,3.20
2017-12-11T14:23:30.550Z,3.20
2017-12-11T14:25:57.475Z,3.20
2017-12-11T14:28:24.439Z,3.20
2017-12-11T14:30:51.344Z,3.20
2017-12-11T14:33:19.038Z,3.20
2017-12-11T14:35:45.970Z,3.50
2017-12-11T14:38:12.872Z,3.20
2017-12-11T14:40:40.704Z,3.30
2017-12-11T14:43:07.613Z,3.30
2017-12-11T14:45:35.317Z,3.20
2017-12-11T14:48:03.260Z,3.50
2017-12-11T14:50:30.750Z,3.40
2017-12-11T14:52:58.057Z,3.30
2017-12-11T14:55:24.998Z,3.40
2017-12-11T14:57:53.601Z,3.20
2017-12-11T15:00:20.561Z,3.20
2017-12-11T15:02:47.480Z,3.20
2017-12-11T15:05:14.416Z,3.20
2017-12-11T15:07:42.095Z,3.20
2017-12-11T15:10:09.087Z,3.20
2017-12-11T15:12:36.012Z,3.20
2017-12-11T15:15:03.001Z,3.10
2017-12-11T15:17:30.878Z,3.20
2017-12-11T15:19:58.574Z,3.30
2017-12-11T15:22:25.510Z,3.20
2017-12-11T15:24:52.421Z,3.30
2017-12-11T15:27:20.909Z,3.30
2017-12-11T15:29:48.594Z,3.30
2017-12-11T15:32:16.093Z,3.40
2017-12-11T15:34:45.050Z,3.30
2017-12-11T15:37:12.023Z,3.10
2017-12-11T15:39:39.853Z,3.10
2017-12-11T15:42:06.780Z,3.00
2017-12-11T15:44:34.636Z,3.00
2017-12-11T15:47:01.556Z,2.90
2017-12-11T15:49:28.460Z,3.00
2017-12-11T15:51:55.402Z,2.90
2017-12-11T15:54:22.312Z,2.80
2017-12-11T15:56:52.980Z,2.60
2017-12-11T15:59:19.911Z,2.70
2017-12-11T16:01:47.781Z,2.50
2017-12-11T16:04:14.693Z,2.50
2017-12-11T16:06:42.383Z,2.40
2017-12-11T16:09:09.295Z,2.50
2017-12-11T16:11:36.235Z,2.40
2017-12-11T16:14:03.165Z,2.30
2017-12-11T16:16:30.101Z,2.30
2017-12-11T16:18:57.025Z,2.20
2017-12-11T16:21:23.937Z,2.10
2017-12-11T16:23:56.209Z,1.90
2017-12-11T16:26:27.830Z,2.20
2017-12-11T16:28:54.739Z,2.00
2017-12-11T16:31:21.648Z,2.10
2017-12-11T16:33:52.188Z,2.10
2017-12-11T16:36:19.108Z,2.00
2017-12-11T16:38:50.415Z,2.00
2017-12-11T16:41:22.206Z,1.80
2017-12-11T16:43:50.956Z,2.10
2017-12-11T16:46:21.170Z,2.10
2017-12-11T16:48:58.486Z,2.30
2017-12-11T16:51:26.421Z,2.30
2017-12-11T16:53:54.799Z,2.20
2017-12-11T16:56:22.728Z,2.10
2017-12-11T16:58:50.425Z,2.20
2017-12-11T17:01:17.344Z,2.40
2017-12-11T17:03:46.248Z,2.30
2017-12-11T17:06:14.264Z,2.40
2017-12-11T17:08:41.209Z,2.50
2017-12-11T17:11:08.147Z,2.60
2017-12-11T17:13:35.082Z,2.80
2017-12-11T17:16:01.993Z,2.60
2017-12-11T17:18:28.919Z,2.60
2017-12-11T17:21:02.483Z,2.60
2017-12-11T17:23:33.212Z,2.60
2017-12-11T17:26:01.115Z,2.60
2017-12-11T17:28:28.845Z,2.80
2017-12-11T17:30:55.756Z,2.70
2017-12-11T17:33:23.617Z,2.70
2017-12-11T17:35:52.476Z,2.90
2017-12-11T17:38:21.370Z,2.70
2017-12-11T17:40:48.289Z,2.70
2017-12-11T17:43:15.988Z,2.80
2017-12-11T17:45:42.955Z,3.00
2017-12-11T17:48:09.928Z,2.90
2017-12-11T17:50:37.014Z,2.90
2017-12-11T17:53:04.879Z,2.90
2017-12-11T17:55:31.797Z,2.90
2017-12-11T17:58:04.671Z,2.70
2017-12-11T18:00:32.365Z,2.70
2017-12-11T18:03:00.215Z,2.70
2017-12-11T18:05:28.077Z,2.60
2017-12-11T18:07:55.006Z,2.80
2017-12-11T18:10:21.917Z,2.90
2017-12-11T18:12:48.841Z,2.70
2017-12-11T18:15:15.740Z,2.60
2017-12-11T18:17:51.371Z,2.80
2017-12-11T18:20:18.283Z,2.70
2017-12-11T18:22:45.188Z,2.70
2017-12-11T18:25:12.875Z,2.70
2017-12-11T18:27:40.730Z,2.90
2017-12-11T18:30:08.576Z,2.90
2017-12-11T18:32:36.289Z,2.70
2017-12-11T18:35:04.140Z,2.80
2017-12-11T18:37:31.060Z,2.70
2017-12-11T18:39:58.736Z,2.70
2017-12-11T18:42:25.802Z,2.80
2017-12-11T18:44:52.720Z,2.60
2017-12-11T18:47:19.653Z,2.60
2017-12-11T18:49:46.569Z,2.70
2017-12-11T18:52:13.500Z,2.90
2017-12-11T18:54:45.113Z,2.60
2017-12-11T18:57:12.081Z,2.50
2017-12-11T18:59:40.947Z,2.50
2017-12-11T19:02:07.865Z,2.40
2017-12-11T19:04:34.788Z,2.40
2017-12-11T19:07:02.211Z,2.50
2017-12-11T19:09:31.811Z,2.40
2017-12-11T19:11:58.755Z,2.30
2017-12-11T19:14:28.216Z,2.40
2017-12-11T19:16:55.125Z,2.30
2017-12-11T19:19:22.049Z,2.40
2017-12-11T19:21:50.879Z,2.30
2017-12-11T19:24:23.518Z,2.20
2017-12-11T19:26:50.441Z,2.10
2017-12-11T19:29:19.329Z,2.10
2017-12-11T19:31:47.010Z,2.10
2017-12-11T19:34:18.396Z,2.20
2017-12-11T19:36:47.229Z,2.20
2017-12-11T19:39:14.193Z,2.10
2017-12-11T19:41:41.135Z,2.00
2017-12-11T19:44:08.093Z,2.00
2017-12-11T19:46:35.021Z,1.90
2017-12-11T19:49:02.007Z,1.80
2017-12-11T19:51:32.120Z,1.80
2017-12-11T19:53:59.057Z,1.70
2017-12-11T19:56:26.002Z,1.90
2017-12-11T19:58:52.939Z,1.90
2017-12-11T20:01:19.857Z,1.80
2017-12-11T20:03:46.833Z,1.90
2017-12-11T20:06:13.744Z,1.80
2017-12-11T20:08:40.666Z,1.80
2017-12-11T20:11:08.351Z,1.90
2017-12-11T20:13:36.209Z,2.00
2017-12-11T20:16:03.929Z,1.80
2017-12-11T20:18:30.918Z,1.80
2017-12-11T20:20:57.834Z,1.70
2017-12-11T20:23:25.754Z,1.70
2017-12-11T20:25:52.673Z,1.80
2017-12-11T20:28:20.382Z,1.80
2017-12-11T20:30:48.293Z,1.90
2017-12-11T20:33:16.031Z,1.80
2017-12-11T20:35:45.467Z,2.00
2017-12-11T20:38:12.425Z,1.80
2017-12-11T20:40:39.345Z,1.90
2017-12-11T20:43:07.093Z,2.00
2017-12-11T20:45:34.016Z,2.20
2017-12-11T20:48:00.958Z,1.90
2017-12-11T20:50:27.893Z,1.90
2017-12-11T20:52:54.821Z,2.10
2017-12-11T20:55:21.745Z,2.10
2017-12-11T20:57:48.935Z,2.00
2017-12-11T21:00:15.838Z,2.10
2017-12-11T21:02:42.799Z,2.20
2017-12-11T21:05:10.453Z,2.50
2017-12-11T21:07:37.377Z,2.60
2017-12-11T21:10:05.112Z,2.20
2017-12-11T21:12:32.022Z,2.20
2017-12-11T21:14:58.970Z,2.20
2017-12-11T21:17:27.131Z,2.10
2017-12-11T21:19:55.095Z,2.00
2017-12-11T21:22:22.137Z,2.10
2017-12-11T21:24:50.981Z,2.10
2017-12-11T21:27:19.905Z,2.30
2017-12-11T21:29:46.838Z,2.30
2017-12-11T21:32:15.746Z,2.40
2017-12-11T21:34:42.679Z,2.30
2017-12-11T21:37:11.398Z,2.40
2017-12-11T21:39:38.349Z,2.30
2017-12-11T21:42:07.396Z,2.30
2017-12-11T21:44:35.098Z,2.40
2017-12-11T21:47:02.008Z,2.30
2017-12-11T21:49:30.644Z,2.30
2017-12-11T21:51:57.588Z,2.50
2017-12-11T21:54:24.488Z,2.30
2017-12-11T21:56:53.512Z,2.20
2017-12-11T21:59:21.501Z,2.30
2017-12-11T22:01:49.433Z,2.50
2017-12-11T22:04:16.735Z,2.30
2017-12-11T22:06:44.645Z,2.30
2017-12-11T22:09:16.833Z,2.40
2017-12-11T22:11:44.685Z,2.30
2017-12-11T22:14:11.628Z,2.30
2017-12-11T22:16:38.664Z,2.30
2017-12-11T22:19:05.602Z,2.30
2017-12-11T22:21:32.563Z,2.40
2017-12-11T22:23:59.475Z,2.30
2017-12-11T22:26:26.381Z,2.30
2017-12-11T22:28:53.314Z,2.40
2017-12-11T22:31:20.253Z,2.40
2017-12-11T22:33:48.093Z,2.40
2017-12-11T22:36:15.806Z,2.50
2017-12-11T22:38:42.704Z,2.70
2017-12-11T22:41:10.413Z,2.30
2017-12-11T22:43:37.365Z,2.30
2017-12-11T22:46:04.299Z,2.10
2017-12-11T22:48:31.231Z,2.00
2017-12-11T22:50:58.148Z,2.00
2017-12-11T22:53:25.839Z,2.20
2017-12-11T22:55:52.778Z,2.10
2017-12-11T22:58:20.606Z,2.10
2017-12-11T23:00:48.298Z,2.30
2017-12-11T23:03:16.157Z,2.20
2017-12-11T23:05:43.065Z,2.40
2017-12-11T23:08:09.990Z,2.40
2017-12-11T23:10:36.936Z,2.50
2017-12-11T23:13:04.421Z,2.40
2017-12-11T23:15:33.048Z,2.60
2017-12-11T23:18:00.169Z,2.50
2017-12-11T23:20:27.089Z,2.60
2017-12-11T23:22:54.052Z,2.60
2017-12-11T23:25:21.728Z,2.20
2017-12-11T23:27:48.649Z,2.40
2017-12-11T23:30:16.328Z,2.30
2017-12-11T23:32:44.024Z,2.20
2017-12-11T23:35:10.942Z,2.30
2017-12-11T23:37:37.873Z,2.30
2017-12-11T23:40:05.546Z,2.30
2017-12-11T23:42:32.468Z,2.30
2017-12-11T23:45:00.369Z,2.50
2017-12-11T23:47:27.300Z,2.50
2017-12-11T23:49:54.217Z,2.40
2017-12-11T23:52:21.136Z,2.40
2017-12-11T23:54:48.040Z,2.50
2017-12-11T23:57:14.985Z,2.60
2017-12-11T23:59:41.884Z,2.60
